Time;durP1;ratioP1;P1;durP2;ratioP2;P2;SDS_P1;SDS_P2;PMS_P1;PMS_P2;Temp;Humidity;BMP_temperature;BMP_pressure;BME280_temperature;BME280_humidity;BME280_pressure;Samples;Min_cycle;Max_cycle;Signal;HPM_P1;HPM_P2
2022/07/12 00:01:54;;;;;;;1.25;1.17;;;18.70;78.50;;;;;;5098420;27;20055;-60
2022/07/12 00:04:19;;;;;;;1.13;1.13;;;18.70;78.50;;;;;;5107006;27;20110;-61
2022/07/12 00:06:45;;;;;;;2.55;1.50;;;18.70;78.50;;;;;;5109384;27;20035;-61
2022/07/12 00:09:11;;;;;;;1.15;1.15;;;18.60;78.60;;;;;;5113132;27;20072;-61
2022/07/12 00:11:37;;;;;;;1.35;1.27;;;18.60;78.70;;;;;;5118004;27;20015;-61
2022/07/12 00:14:04;;;;;;;1.30;1.20;;;18.60;78.70;;;;;;5111527;27;20024;-61
2022/07/12 00:16:30;;;;;;;1.52;1.42;;;18.50;78.80;;;;;;5113241;27;20027;-61
2022/07/12 00:18:56;;;;;;;1.60;1.50;;;18.40;78.90;;;;;;5107753;27;20027;-61
2022/07/12 00:21:22;;;;;;;1.48;1.38;;;18.40;79.00;;;;;;5118411;27;20019;-60
2022/07/12 00:23:47;;;;;;;1.88;1.77;;;18.40;79.00;;;;;;5112047;27;20093;-61
2022/07/12 00:26:13;;;;;;;1.20;1.20;;;18.40;79.00;;;;;;5117304;27;20019;-61
2022/07/12 00:28:39;;;;;;;1.70;1.55;;;18.40;79.00;;;;;;5112350;27;20030;-61
2022/07/12 00:31:04;;;;;;;1.70;1.60;;;18.40;79.00;;;;;;5109341;27;20059;-61
2022/07/12 00:33:30;;;;;;;1.38;1.38;;;18.40;79.00;;;;;;5113007;27;20076;-61
2022/07/12 00:35:56;;;;;;;1.02;1.02;;;18.40;79.00;;;;;;5107353;28;20601;-61
2022/07/12 00:38:21;;;;;;;1.23;1.10;;;18.40;79.00;;;;;;5108630;27;20024;-61
2022/07/12 00:40:47;;;;;;;1.45;1.45;;;18.40;79.00;;;;;;5114643;27;20086;-61
2022/07/12 00:43:13;;;;;;;1.30;1.20;;;18.40;78.90;;;;;;5105292;27;20027;-60
2022/07/12 00:45:39;;;;;;;1.55;1.45;;;18.40;79.10;;;;;;5103730;28;20024;-61
2022/07/12 00:48:05;;;;;;;1.42;1.42;;;18.30;79.10;;;;;;5106708;28;20031;-61
2022/07/12 00:50:31;;;;;;;1.70;1.60;;;18.30;79.30;;;;;;5109822;27;20031;-61
2022/07/12 00:52:58;;;;;;;1.10;1.10;;;18.30;80.10;;;;;;5105503;27;20061;-61
2022/07/12 00:55:24;;;;;;;1.05;1.02;;;18.30;79.60;;;;;;5108724;28;20027;-60
2022/07/12 00:57:50;;;;;;;1.35;1.25;;;18.30;79.60;;;;;;5116440;27;20031;-60
2022/07/12 01:00:23;;;;;;;1.60;1.50;;;18.30;79.70;;;;;;5103538;28;20491;-61
2022/07/12 01:02:49;;;;;;;1.50;1.40;;;18.30;79.70;;;;;;5107425;28;20454;-60
2022/07/12 01:05:15;;;;;;;1.90;1.52;;;18.30;79.70;;;;;;5108619;28;20587;-61
2022/07/12 01:07:41;;;;;;;2.88;1.77;;;18.30;79.70;;;;;;5112068;28;20027;-61
2022/07/12 01:10:07;;;;;;;1.63;1.52;;;18.40;79.80;;;;;;5111872;28;20089;-61
2022/07/12 01:12:34;;;;;;;1.67;1.58;;;18.30;79.70;;;;;;5108485;28;20031;-61
2022/07/12 01:15:01;;;;;;;1.85;1.75;;;18.40;79.60;;;;;;5102594;28;20499;-61
2022/07/12 01:17:27;;;;;;;1.50;1.45;;;18.30;79.60;;;;;;5101446;28;20483;-61
2022/07/12 01:19:56;;;;;;;1.65;1.55;;;18.30;79.40;;;;;;5117074;28;20034;-61
2022/07/12 01:22:30;;;;;;;1.67;1.58;;;18.30;79.30;;;;;;5103570;28;20028;-60
2022/07/12 01:24:56;;;;;;;1.83;1.73;;;18.30;79.50;;;;;;5102349;28;20121;-61
2022/07/12 01:27:21;;;;;;;1.70;1.60;;;18.20;79.50;;;;;;5095672;28;20024;-61
2022/07/12 01:29:47;;;;;;;1.55;1.48;;;18.20;79.50;;;;;;5106129;28;20399;-61
2022/07/12 01:32:25;;;;;;;1.90;1.67;;;18.20;79.60;;;;;;5102270;28;20034;-60
2022/07/12 01:34:55;;;;;;;1.50;1.40;;;18.20;79.70;;;;;;5097573;28;20035;-61
2022/07/12 01:37:22;;;;;;;1.70;1.60;;;18.10;79.60;;;;;;5099818;28;20391;-61
2022/07/12 01:39:53;;;;;;;1.85;1.75;;;18.10;79.70;;;;;;5101497;28;20092;-61
2022/07/12 01:42:20;;;;;;;2.23;1.70;;;18.10;79.70;;;;;;5098116;28;20023;-61
2022/07/12 01:44:46;;;;;;;3.33;2.10;;;18.10;79.70;;;;;;5109517;28;20268;-61
2022/07/12 01:47:12;;;;;;;1.65;1.55;;;18.10;79.90;;;;;;5099178;28;20024;-61
2022/07/12 01:49:37;;;;;;;1.70;1.60;;;18.10;79.80;;;;;;5098228;28;20039;-61
2022/07/12 01:52:04;;;;;;;2.00;1.90;;;18.10;79.80;;;;;;5108897;28;20070;-61
2022/07/12 01:54:30;;;;;;;1.90;1.80;;;18.10;79.80;;;;;;5108803;28;20046;-61
2022/07/12 01:56:56;;;;;;;1.85;1.67;;;18.10;79.80;;;;;;5102768;28;20040;-61
2022/07/12 01:59:22;;;;;;;1.95;1.83;;;18.10;79.70;;;;;;5111955;28;20023;-61
2022/07/12 02:01:48;;;;;;;1.77;1.67;;;18.10;79.60;;;;;;5106881;28;20511;-61
2022/07/12 02:04:18;;;;;;;1.80;1.67;;;18.00;79.50;;;;;;5113056;28;20048;-61
2022/07/12 02:06:47;;;;;;;1.60;1.50;;;18.00;79.40;;;;;;5114999;28;20427;-61
2022/07/12 02:09:13;;;;;;;1.50;1.50;;;18.00;79.30;;;;;;5106709;28;20023;-61
2022/07/12 02:11:40;;;;;;;1.50;1.40;;;18.00;79.20;;;;;;5116075;28;20387;-61
2022/07/12 02:14:06;;;;;;;1.60;1.50;;;18.00;79.20;;;;;;5105693;28;20028;-61
2022/07/12 02:16:32;;;;;;;1.30;1.23;;;18.00;78.80;;;;;;5110408;28;20379;-61
2022/07/12 02:18:58;;;;;;;1.50;1.45;;;18.10;78.80;;;;;;5108194;28;20031;-61
2022/07/12 02:21:24;;;;;;;1.50;1.40;;;18.10;78.60;;;;;;5110757;28;20016;-61
2022/07/12 02:23:49;;;;;;;1.70;1.60;;;18.10;78.50;;;;;;5114160;27;20054;-61
2022/07/12 02:26:15;;;;;;;1.98;1.88;;;18.10;78.40;;;;;;5115645;27;20374;-61
2022/07/12 02:28:42;;;;;;;1.58;1.48;;;18.10;78.30;;;;;;5110960;27;20026;-61
2022/07/12 02:31:08;;;;;;;1.60;1.50;;;18.10;78.80;;;;;;5118758;27;20360;-61
2022/07/12 02:33:34;;;;;;;1.63;1.52;;;18.10;78.40;;;;;;5117008;27;20023;-61
2022/07/12 02:35:59;;;;;;;1.80;1.70;;;18.10;78.40;;;;;;5114433;27;20034;-61
2022/07/12 02:38:25;;;;;;;2.10;1.90;;;18.10;78.20;;;;;;5112669;27;20055;-61
2022/07/12 02:40:53;;;;;;;2.15;1.95;;;18.10;78.40;;;;;;5112956;27;20031;-61
2022/07/12 02:43:31;;;;;;;2.65;1.80;;;18.10;78.40;;;;;;5117071;27;20019;-61
2022/07/12 02:46:04;;;;;;;1.67;1.58;;;18.10;78.50;;;;;;5111938;27;20051;-61
2022/07/12 02:48:30;;;;;;;2.10;1.75;;;18.10;78.40;;;;;;5108403;27;20044;-61
2022/07/12 02:50:56;;;;;;;1.90;1.80;;;18.20;78.30;;;;;;5112356;27;20020;-61
2022/07/12 02:53:22;;;;;;;1.80;1.70;;;18.20;78.10;;;;;;5115222;27;20436;-61
2022/07/12 02:55:48;;;;;;;2.33;1.50;;;18.30;78.00;;;;;;5113555;27;20023;-61
2022/07/12 02:58:14;;;;;;;1.90;1.80;;;18.30;77.70;;;;;;5108361;27;20036;-61
2022/07/12 03:00:41;;;;;;;1.75;1.65;;;18.30;77.50;;;;;;5107787;27;20429;-61
2022/07/12 03:03:07;;;;;;;1.58;1.48;;;18.30;77.50;;;;;;5104290;27;20531;-61
2022/07/12 03:05:36;;;;;;;1.52;1.42;;;18.30;77.70;;;;;;5096601;27;22328;-61
2022/07/12 03:08:03;;;;;;;2.00;1.63;;;18.40;77.70;;;;;;5098467;27;20472;-61
2022/07/12 03:10:29;;;;;;;1.88;1.70;;;18.40;77.50;;;;;;5110126;27;20428;-61
2022/07/12 03:12:55;;;;;;;1.38;1.38;;;18.40;77.50;;;;;;5113792;27;20115;-61
2022/07/12 03:15:20;;;;;;;1.80;1.70;;;18.40;77.50;;;;;;5098121;28;20098;-61
2022/07/12 03:17:46;;;;;;;2.40;1.77;;;18.50;77.30;;;;;;5112425;27;20062;-61
2022/07/12 03:20:14;;;;;;;1.27;1.25;;;18.50;77.10;;;;;;5111993;28;20019;-61
2022/07/12 03:22:40;;;;;;;1.50;1.40;;;18.50;77.20;;;;;;5108038;27;20038;-61
2022/07/12 03:25:07;;;;;;;2.10;2.00;;;18.60;77.20;;;;;;5106130;27;20046;-61
2022/07/12 03:27:33;;;;;;;2.67;1.83;;;18.60;77.00;;;;;;5107184;27;20084;-61
2022/07/12 03:29:59;;;;;;;1.70;1.60;;;18.60;76.90;;;;;;5106220;27;20027;-61
2022/07/12 03:32:25;;;;;;;2.10;2.00;;;18.70;77.50;;;;;;5108064;27;20039;-61
2022/07/12 03:34:50;;;;;;;1.70;1.60;;;18.80;78.60;;;;;;5108364;27;20028;-61
2022/07/12 03:37:16;;;;;;;1.80;1.70;;;19.00;79.70;;;;;;5101652;28;20145;-61
2022/07/12 03:39:42;;;;;;;2.00;1.80;;;19.30;80.70;;;;;;5104410;28;20035;-62
2022/07/12 03:42:07;;;;;;;1.75;1.65;;;19.60;80.70;;;;;;5110206;27;20027;-61
2022/07/12 03:44:33;;;;;;;1.75;1.65;;;20.00;80.60;;;;;;5107640;27;20051;-61
2022/07/12 03:46:59;;;;;;;1.88;1.70;;;20.40;80.10;;;;;;5112391;27;20035;-62
2022/07/12 03:49:26;;;;;;;1.67;1.58;;;21.00;79.50;;;;;;5106591;27;20035;-61
2022/07/12 03:51:52;;;;;;;1.90;1.70;;;21.70;79.00;;;;;;5118228;27;20031;-62
2022/07/12 03:54:18;;;;;;;1.65;1.55;;;22.60;77.50;;;;;;5109876;27;20032;-59
2022/07/12 03:59:45;;;;;;;1.80;1.70;;;24.50;73.00;;;;;;5049070;28;20028;-59
2022/07/12 04:02:12;;;;;;;1.83;1.50;;;25.80;70.80;;;;;;5096853;27;20031;-59
2022/07/12 04:04:38;;;;;;;1.70;1.60;;;26.80;68.90;;;;;;5108680;27;20031;-59
2022/07/12 04:07:04;;;;;;;1.30;1.20;;;27.80;66.90;;;;;;5102474;27;20077;-59
2022/07/12 04:09:30;;;;;;;1.55;1.45;;;28.70;65.10;;;;;;5112405;27;20486;-60
2022/07/12 04:11:56;;;;;;;1.20;1.20;;;29.60;63.70;;;;;;5107833;27;20027;-59
2022/07/12 04:14:21;;;;;;;1.15;1.15;;;30.50;62.00;;;;;;5104944;27;20103;-59
2022/07/12 04:16:47;;;;;;;1.27;1.27;;;31.30;60.70;;;;;;5107564;27;20032;-59
2022/07/12 04:19:12;;;;;;;0.95;0.95;;;32.00;59.50;;;;;;5109833;27;20039;-59
2022/07/12 04:21:39;;;;;;;1.05;0.95;;;32.70;57.90;;;;;;5104702;27;20072;-60
2022/07/12 04:24:05;;;;;;;1.25;1.17;;;33.40;57.00;;;;;;5105452;27;20081;-60
2022/07/12 04:26:31;;;;;;;0.90;0.90;;;34.00;55.40;;;;;;5105824;27;20032;-60
2022/07/12 04:28:57;;;;;;;1.40;1.40;;;34.70;54.70;;;;;;5105913;27;20495;-60
2022/07/12 04:31:24;;;;;;;0.90;0.90;;;35.20;54.00;;;;;;5105662;27;20057;-60
2022/07/12 04:33:50;;;;;;;1.08;0.80;;;35.80;53.00;;;;;;5109814;27;20030;-60
2022/07/12 04:36:15;;;;;;;1.05;0.75;;;36.30;52.20;;;;;;5097339;27;20028;-60
2022/07/12 04:38:41;;;;;;;0.60;0.60;;;36.60;51.50;;;;;;5106820;27;20027;-60
2022/07/12 04:41:07;;;;;;;0.65;0.65;;;37.00;50.80;;;;;;5109179;27;20105;-60
2022/07/12 04:43:32;;;;;;;0.60;0.60;;;37.40;50.00;;;;;;5116444;27;20023;-60
2022/07/12 04:46:11;;;;;;;0.57;0.57;;;37.70;49.40;;;;;;5101365;27;20059;-60
2022/07/12 04:48:37;;;;;;;1.17;1.00;;;37.90;48.60;;;;;;5099776;27;20036;-60
2022/07/12 04:51:03;;;;;;;0.70;0.70;;;38.10;48.80;;;;;;5110533;27;20047;-62
2022/07/12 04:53:30;;;;;;;0.95;0.55;;;38.40;48.30;;;;;;5114940;27;20031;-61
2022/07/12 04:55:56;;;;;;;0.43;0.43;;;38.60;48.00;;;;;;5110593;27;20031;-60
2022/07/12 04:58:23;;;;;;;0.50;0.50;;;38.80;47.80;;;;;;5098009;27;20032;-59
2022/07/12 05:00:49;;;;;;;0.47;0.43;;;39.00;47.20;;;;;;5097118;28;20023;-59
2022/07/12 05:03:14;;;;;;;0.90;0.90;;;39.20;47.00;;;;;;5110738;28;20068;-59
2022/07/12 05:05:40;;;;;;;1.30;0.68;;;39.40;46.60;;;;;;5116760;27;20019;-59
2022/07/12 05:08:06;;;;;;;0.90;0.90;;;39.60;46.00;;;;;;5109720;28;20102;-59
2022/07/12 05:10:31;;;;;;;0.63;0.63;;;39.80;45.70;;;;;;5101451;28;20056;-59
2022/07/12 05:12:57;;;;;;;0.55;0.55;;;39.90;45.60;;;;;;5106511;28;20491;-59
2022/07/12 05:15:23;;;;;;;1.23;0.73;;;40.10;45.40;;;;;;5083624;28;20024;-59
2022/07/12 05:17:48;;;;;;;0.77;0.77;;;40.20;45.00;;;;;;5102753;28;20030;-59
2022/07/12 05:20:14;;;;;;;0.60;0.60;;;40.30;44.50;;;;;;5104348;28;20069;-59
2022/07/12 05:22:43;;;;;;;0.68;0.68;;;40.40;44.00;;;;;;5109944;28;20085;-59
2022/07/12 05:25:09;;;;;;;0.95;0.70;;;40.40;43.50;;;;;;5095420;28;20389;-59
2022/07/12 05:27:35;;;;;;;1.10;1.00;;;40.40;42.50;;;;;;5103893;28;20034;-61
2022/07/12 05:30:01;;;;;;;0.70;0.70;;;40.10;41.60;;;;;;5107194;28;20032;-61
2022/07/12 05:32:27;;;;;;;0.80;0.80;;;39.50;41.70;;;;;;5099036;28;20459;-60
2022/07/12 05:34:52;;;;;;;0.73;0.73;;;38.70;41.80;;;;;;5098358;28;20060;-60
2022/07/12 05:37:18;;;;;;;0.82;0.70;;;37.80;42.10;;;;;;5092617;28;20031;-60
2022/07/12 05:39:44;;;;;;;0.80;0.70;;;36.80;42.50;;;;;;5097260;28;20035;-60
2022/07/12 05:42:09;;;;;;;0.88;0.88;;;35.90;43.20;;;;;;5097260;28;20028;-61
2022/07/12 05:44:35;;;;;;;1.33;0.80;;;34.90;43.70;;;;;;5092221;28;20077;-60
2022/07/12 05:47:01;;;;;;;0.80;0.80;;;34.10;44.40;;;;;;5084917;28;20376;-59
2022/07/12 05:49:28;;;;;;;0.60;0.60;;;33.30;45.00;;;;;;5088083;28;20056;-59
2022/07/12 05:54:38;;;;;;;1.20;1.10;;;32.00;46.00;;;;;;5092741;28;20120;-62
2022/07/12 05:57:04;;;;;;;1.38;1.27;;;31.30;46.60;;;;;;5090883;28;20040;-62
2022/07/12 05:59:30;;;;;;;1.55;1.10;;;30.70;46.90;;;;;;5092351;27;20122;-62
2022/07/12 06:01:57;;;;;;;0.88;0.88;;;30.20;47.30;;;;;;5092824;27;20035;-61
2022/07/12 06:04:23;;;;;;;1.17;0.95;;;29.70;47.80;;;;;;5098746;27;20024;-61
2022/07/12 06:06:48;;;;;;;0.88;0.85;;;29.30;48.10;;;;;;5086347;27;20483;-61
2022/07/12 06:09:14;;;;;;;1.08;1.08;;;28.90;48.40;;;;;;5091256;27;20081;-61
2022/07/12 06:11:39;;;;;;;1.90;1.08;;;28.60;48.80;;;;;;5104520;27;20038;-61
2022/07/12 06:14:06;;;;;;;0.90;0.90;;;28.30;49.70;;;;;;5094981;27;20034;-61
2022/07/12 06:16:32;;;;;;;1.20;1.15;;;27.90;49.50;;;;;;5090494;27;20032;-62
2022/07/12 06:18:57;;;;;;;0.82;0.82;;;27.70;49.90;;;;;;5095497;27;20398;-61
2022/07/12 06:21:23;;;;;;;2.15;1.17;;;27.50;50.30;;;;;;5093754;27;20038;-62
2022/07/12 06:23:49;;;;;;;2.38;1.38;;;27.30;50.60;;;;;;5090757;27;20032;-62
2022/07/12 06:26:14;;;;;;;1.70;1.55;;;27.10;50.80;;;;;;5093989;27;20716;-62
2022/07/12 06:28:41;;;;;;;1.50;1.33;;;26.90;51.00;;;;;;5093635;27;20058;-62
2022/07/12 06:31:06;;;;;;;1.20;1.10;;;26.80;51.20;;;;;;5090225;27;20043;-63
2022/07/12 06:33:34;;;;;;;1.23;1.13;;;26.70;51.20;;;;;;5087645;27;20102;-63
2022/07/12 06:35:59;;;;;;;1.80;1.02;;;26.60;51.40;;;;;;5099279;27;20030;-64
2022/07/12 06:38:25;;;;;;;0.73;0.73;;;26.50;51.60;;;;;;5084088;27;20028;-63
2022/07/12 06:40:51;;;;;;;0.90;0.90;;;26.30;52.40;;;;;;5084440;27;20491;-64
2022/07/12 06:43:16;;;;;;;1.10;1.00;;;26.30;52.00;;;;;;5091290;27;20019;-65
2022/07/12 06:45:43;;;;;;;1.40;0.88;;;26.20;52.20;;;;;;5081179;27;20042;-64
2022/07/12 06:48:08;;;;;;;1.73;1.40;;;26.10;52.40;;;;;;5088253;27;20024;-65
2022/07/12 06:50:34;;;;;;;1.05;1.05;;;26.00;52.30;;;;;;5087480;27;20107;-65
2022/07/12 06:53:00;;;;;;;1.25;1.02;;;26.00;52.30;;;;;;5089019;27;20036;-65
2022/07/12 06:55:26;;;;;;;1.05;1.00;;;25.90;52.50;;;;;;5082015;27;20032;-65
2022/07/12 06:57:51;;;;;;;0.98;0.98;;;25.90;52.40;;;;;;5088661;27;20383;-65
2022/07/12 07:00:17;;;;;;;1.00;1.00;;;25.80;52.50;;;;;;5085705;27;20042;-63
2022/07/12 07:02:43;;;;;;;1.17;1.13;;;25.80;52.70;;;;;;5073712;27;20039;-64
2022/07/12 07:05:10;;;;;;;0.93;0.93;;;25.70;52.60;;;;;;5082431;27;20027;-64
2022/07/12 07:07:36;;;;;;;1.02;1.02;;;25.60;52.70;;;;;;5081505;27;20042;-64
2022/07/12 07:10:02;;;;;;;1.65;1.15;;;25.60;52.70;;;;;;5078651;27;20486;-63
2022/07/12 07:12:28;;;;;;;0.60;0.60;;;25.60;52.70;;;;;;5082132;27;20040;-64
2022/07/12 07:14:54;;;;;;;1.02;1.02;;;25.50;52.60;;;;;;5085662;27;20440;-64
2022/07/12 07:17:19;;;;;;;0.93;0.80;;;25.50;52.70;;;;;;5077654;27;20036;-63
2022/07/12 07:19:46;;;;;;;1.05;1.05;;;25.40;52.70;;;;;;5075347;28;20495;-63
2022/07/12 07:22:12;;;;;;;0.75;0.75;;;25.40;52.70;;;;;;5076470;27;20027;-63
2022/07/12 07:24:39;;;;;;;1.13;1.02;;;25.40;52.70;;;;;;5076983;27;20028;-63
2022/07/12 07:27:05;;;;;;;1.05;0.98;;;25.40;52.30;;;;;;5082260;27;20039;-63
2022/07/12 07:32:15;;;;;;;1.00;1.00;;;25.30;52.10;;;;;;5075165;27;20038;-63
2022/07/12 07:34:41;;;;;;;1.17;1.08;;;25.20;52.10;;;;;;5068480;27;20040;-62
2022/07/12 07:37:09;;;;;;;0.80;0.80;;;25.10;52.10;;;;;;5086096;27;20615;-63
2022/07/12 07:39:35;;;;;;;0.98;0.82;;;25.10;52.10;;;;;;5085948;27;20023;-61
2022/07/12 07:42:01;;;;;;;0.73;0.73;;;25.00;52.00;;;;;;5084968;27;20158;-62
2022/07/12 07:44:27;;;;;;;0.60;0.60;;;25.00;52.00;;;;;;5090041;27;20092;-62
2022/07/12 07:46:53;;;;;;;0.82;0.82;;;25.00;52.10;;;;;;5086943;27;20036;-62
2022/07/12 07:49:19;;;;;;;0.70;0.70;;;25.00;52.10;;;;;;5084617;27;20063;-62
2022/07/12 07:51:44;;;;;;;0.60;0.60;;;25.00;52.40;;;;;;5089213;27;20031;-62
2022/07/12 07:54:10;;;;;;;0.63;0.63;;;25.00;52.10;;;;;;5085862;27;20036;-62
2022/07/12 07:56:36;;;;;;;0.80;0.80;;;25.00;52.00;;;;;;5083967;27;20058;-62
2022/07/12 07:59:02;;;;;;;0.90;0.90;;;25.10;52.10;;;;;;5081294;27;20024;-62
2022/07/12 08:01:44;;;;;;;1.10;1.10;;;25.00;52.20;;;;;;5077615;27;20036;-63
2022/07/12 08:04:20;;;;;;;1.00;0.90;;;25.10;52.10;;;;;;5092916;27;20028;-63
2022/07/12 08:06:47;;;;;;;0.90;0.90;;;25.00;52.10;;;;;;5089202;27;20030;-62
2022/07/12 08:09:14;;;;;;;0.57;0.57;;;25.10;52.10;;;;;;5081893;27;20042;-61
2022/07/12 08:11:40;;;;;;;0.90;0.90;;;25.00;52.10;;;;;;5082810;27;20036;-62
2022/07/12 08:14:07;;;;;;;0.80;0.80;;;25.00;51.90;;;;;;5082018;27;20027;-64
2022/07/12 08:16:33;;;;;;;1.30;1.15;;;25.00;51.90;;;;;;5071376;27;20035;-63
2022/07/12 08:18:59;;;;;;;0.70;0.70;;;25.10;52.00;;;;;;5084919;27;20016;-64
2022/07/12 08:21:25;;;;;;;0.65;0.65;;;25.10;52.00;;;;;;5093548;27;20036;-63
2022/07/12 08:23:50;;;;;;;1.20;0.77;;;25.20;52.10;;;;;;5089551;27;20036;-64
2022/07/12 08:26:16;;;;;;;1.42;1.00;;;25.20;52.00;;;;;;5083245;27;20055;-63
2022/07/12 08:28:42;;;;;;;0.65;0.65;;;25.30;51.80;;;;;;5088243;27;20130;-63
2022/07/12 08:31:08;;;;;;;0.70;0.70;;;25.30;51.80;;;;;;5088009;27;20406;-60
2022/07/12 08:33:34;;;;;;;0.98;0.90;;;25.40;51.70;;;;;;5084315;27;20035;-61
2022/07/12 08:36:00;;;;;;;1.27;1.13;;;25.40;51.50;;;;;;5085513;27;20089;-61
2022/07/12 08:38:25;;;;;;;1.08;0.90;;;25.40;51.40;;;;;;5088734;27;20467;-61
2022/07/12 08:40:52;;;;;;;1.00;1.00;;;25.40;51.20;;;;;;5074953;27;20023;-62
2022/07/12 08:43:17;;;;;;;1.10;1.00;;;25.30;50.90;;;;;;5082816;27;20043;-63
2022/07/12 08:45:43;;;;;;;1.00;0.90;;;25.20;50.70;;;;;;5074471;27;20668;-64
2022/07/12 08:48:09;;;;;;;0.60;0.60;;;25.10;50.80;;;;;;5078556;27;20403;-63
2022/07/12 08:50:35;;;;;;;0.93;0.80;;;25.00;51.00;;;;;;5077080;27;20062;-61
2022/07/12 08:53:00;;;;;;;0.55;0.55;;;24.90;51.40;;;;;;5077795;27;20054;-62
2022/07/12 08:55:31;;;;;;;0.95;0.95;;;24.90;51.40;;;;;;5073899;28;20848;-61
2022/07/12 08:57:58;;;;;;;0.80;0.80;;;25.00;51.30;;;;;;5073764;27;20151;-62
2022/07/12 09:00:26;;;;;;;1.08;0.77;;;25.00;51.30;;;;;;5082739;27;20043;-62
2022/07/12 09:03:00;;;;;;;1.00;1.00;;;25.00;51.10;;;;;;5071663;28;20043;-63
2022/07/12 09:05:31;;;;;;;0.90;0.90;;;25.00;51.10;;;;;;5078039;27;20818;-62
2022/07/12 09:08:04;;;;;;;;;;;25.00;51.10;;;;;;5080483;27;20024;-61
2022/07/12 09:10:30;;;;;;;0.68;0.63;;;25.00;50.90;;;;;;5075982;28;19947;-61
2022/07/12 09:12:55;;;;;;;0.57;0.57;;;25.00;50.90;;;;;;5077860;28;20114;-61
2022/07/12 09:15:23;;;;;;;0.90;0.90;;;25.00;50.80;;;;;;5089786;28;20088;-61
2022/07/12 09:18:00;;;;;;;0.93;0.93;;;25.10;50.70;;;;;;5077384;28;20032;-61
2022/07/12 09:20:36;;;;;;;0.65;0.65;;;25.10;50.30;;;;;;5073311;28;20032;-61
2022/07/12 09:23:09;;;;;;;0.98;0.70;;;25.00;50.20;;;;;;5086973;28;20111;-61
2022/07/12 09:25:36;;;;;;;0.80;0.80;;;24.90;50.20;;;;;;5082134;28;20031;-61
2022/07/12 09:28:07;;;;;;;0.75;0.75;;;24.90;50.30;;;;;;5081969;28;20059;-63
2022/07/12 09:30:33;;;;;;;;;;;24.80;50.40;;;;;;5080997;28;20024;-62
2022/07/12 09:36:07;;;;;;;0.82;0.82;;;24.80;50.70;;;;;;5068574;27;20077;-61
2022/07/12 09:38:38;;;;;;;0.50;0.50;;;24.80;50.80;;;;;;5065773;27;20039;-62
2022/07/12 09:41:05;;;;;;;0.68;0.68;;;24.80;50.50;;;;;;5085398;27;20438;-62
2022/07/12 09:43:32;;;;;;;0.60;0.60;;;24.90;50.40;;;;;;5085962;27;20517;-62
2022/07/12 09:45:58;;;;;;;0.60;0.60;;;24.80;50.20;;;;;;5080801;27;20098;-62
2022/07/12 09:48:27;;;;;;;0.70;0.70;;;24.80;50.20;;;;;;5083907;27;20464;-61
2022/07/12 09:50:56;;;;;;;0.95;0.95;;;24.80;50.00;;;;;;5078783;27;20031;-62
2022/07/12 09:53:41;;;;;;;0.63;0.63;;;24.80;50.00;;;;;;5080454;27;20027;-63
2022/07/12 09:56:11;;;;;;;0.73;0.73;;;24.80;49.90;;;;;;5077612;27;20601;-62
2022/07/12 09:58:49;;;;;;;0.50;0.50;;;24.80;50.10;;;;;;5077198;27;20036;-62
2022/07/12 10:01:16;;;;;;;0.70;0.70;;;24.80;50.00;;;;;;5065959;27;20782;-62
2022/07/12 10:03:43;;;;;;;1.33;1.30;;;24.80;50.00;;;;;;5069161;28;20032;-62
2022/07/12 10:06:09;;;;;;;0.95;0.93;;;24.80;49.60;;;;;;5087040;27;20552;-63
2022/07/12 10:08:35;;;;;;;0.75;0.75;;;24.70;49.60;;;;;;5081255;27;20061;-63
2022/07/12 10:11:01;;;;;;;0.80;0.80;;;24.80;49.80;;;;;;5079698;27;20031;-62
2022/07/12 10:13:27;;;;;;;0.55;0.55;;;24.80;50.10;;;;;;5086520;27;20035;-62
2022/07/12 10:16:00;;;;;;;0.52;0.52;;;24.80;49.50;;;;;;5078109;27;20146;-61
2022/07/12 10:18:26;;;;;;;0.82;0.73;;;24.80;49.50;;;;;;5081457;27;20035;-62
2022/07/12 10:20:52;;;;;;;0.93;0.93;;;24.80;49.30;;;;;;5080523;27;20067;-62
2022/07/12 10:23:36;;;;;;;0.68;0.68;;;24.70;49.30;;;;;;5069614;27;20140;-62
2022/07/12 10:26:26;;;;;;;1.02;0.93;;;24.80;49.40;;;;;;5086289;28;20115;-62
2022/07/12 10:28:58;;;;;;;0.65;0.65;;;24.80;49.20;;;;;;5081378;27;20121;-62
2022/07/12 10:31:26;;;;;;;0.82;0.82;;;24.80;49.30;;;;;;5084275;27;20032;-63
2022/07/12 10:34:13;;;;;;;1.08;1.00;;;24.90;49.10;;;;;;5083452;27;20153;-62
2022/07/12 10:36:54;;;;;;;0.73;0.73;;;25.00;48.50;;;;;;5091137;27;23183;-62
2022/07/12 10:39:21;;;;;;;1.08;1.00;;;24.90;48.30;;;;;;5083590;27;20023;-62
2022/07/12 10:42:19;;;;;;;0.60;0.60;;;24.90;48.30;;;;;;5082105;27;20106;-62
2022/07/12 10:44:47;;;;;;;0.70;0.70;;;24.80;48.10;;;;;;5034843;28;20096;-62
2022/07/12 10:47:15;;;;;;;0.60;0.60;;;24.80;48.30;;;;;;5091993;27;20168;-62
2022/07/12 10:49:54;;;;;;;0.82;0.82;;;24.80;48.50;;;;;;5089064;27;20063;-63
2022/07/12 10:52:24;;;;;;;0.47;0.47;;;24.80;48.20;;;;;;5092095;27;20035;-61
2022/07/12 10:54:50;;;;;;;0.50;0.50;;;24.80;48.30;;;;;;5086321;27;20024;-61
2022/07/12 10:57:40;;;;;;;0.70;0.70;;;24.90;48.30;;;;;;5088599;27;20055;-62
2022/07/12 11:00:08;;;;;;;0.75;0.75;;;24.90;48.20;;;;;;5074295;27;20089;-63
2022/07/12 11:02:34;;;;;;;1.17;1.08;;;24.90;48.30;;;;;;5061888;28;20028;-63
2022/07/12 11:05:00;;;;;;;1.00;1.00;;;24.90;48.20;;;;;;5085122;27;20146;-62
2022/07/12 11:07:27;;;;;;;0.52;0.52;;;24.90;47.80;;;;;;5087584;27;20019;-62
2022/07/12 11:09:55;;;;;;;0.80;0.70;;;24.90;48.10;;;;;;5090296;27;20031;-63
2022/07/12 11:12:29;;;;;;;0.80;0.80;;;24.90;48.20;;;;;;5091385;27;20027;-62
2022/07/12 11:14:54;;;;;;;0.95;0.95;;;25.00;48.30;;;;;;5077593;27;20568;-62
2022/07/12 11:17:25;;;;;;;0.50;0.50;;;25.00;48.40;;;;;;5085525;27;20035;-63
2022/07/12 11:20:10;;;;;;;0.88;0.80;;;25.10;48.50;;;;;;5083596;27;20035;-63
2022/07/12 11:22:40;;;;;;;0.60;0.60;;;25.20;48.50;;;;;;5083441;27;20051;-63
2022/07/12 11:25:09;;;;;;;0.73;0.73;;;25.20;48.30;;;;;;5083275;27;20042;-63
2022/07/12 11:27:35;;;;;;;0.63;0.63;;;25.30;48.30;;;;;;5085201;27;20035;-63
2022/07/12 11:30:02;;;;;;;0.70;0.70;;;25.30;48.20;;;;;;5087249;27;20122;-62
2022/07/12 11:32:39;;;;;;;0.63;0.63;;;25.20;48.10;;;;;;5078234;27;20040;-63
2022/07/12 11:35:17;;;;;;;0.80;0.60;;;25.30;48.20;;;;;;5081577;27;20053;-62
2022/07/12 11:37:57;;;;;;;0.70;0.70;;;25.30;48.50;;;;;;5089099;27;20031;-63
2022/07/12 11:40:30;;;;;;;0.70;0.70;;;25.30;48.40;;;;;;5086663;27;20027;-62
2022/07/12 11:43:00;;;;;;;0.60;0.60;;;25.30;48.40;;;;;;5085525;27;20750;-61
2022/07/12 11:45:27;;;;;;;1.83;0.80;;;25.30;48.40;;;;;;5078769;27;20404;-62
2022/07/12 11:47:53;;;;;;;1.90;1.80;;;25.30;48.20;;;;;;5078019;27;20039;-63
2022/07/12 11:50:19;;;;;;;0.80;0.80;;;25.20;48.00;;;;;;5085566;27;20332;-62
2022/07/12 11:52:46;;;;;;;0.60;0.60;;;25.20;48.00;;;;;;5084580;27;21352;-62
2022/07/12 11:55:11;;;;;;;0.80;0.80;;;25.20;48.30;;;;;;5082834;27;20027;-62
2022/07/12 11:57:37;;;;;;;0.85;0.80;;;25.10;48.20;;;;;;5076544;27;20044;-62
2022/07/12 12:00:33;;;;;;;0.95;0.90;;;25.20;48.30;;;;;;5073108;27;20042;-62
2022/07/12 12:03:00;;;;;;;0.65;0.65;;;25.20;47.90;;;;;;5058914;28;20481;-65
2022/07/12 12:05:26;;;;;;;0.80;0.80;;;25.20;48.10;;;;;;5075942;27;20047;-63
2022/07/12 12:07:51;;;;;;;1.17;0.52;;;25.20;48.20;;;;;;5084482;27;20553;-62
2022/07/12 12:10:17;;;;;;;0.70;0.70;;;25.20;48.00;;;;;;5083479;28;20031;-61
2022/07/12 12:12:53;;;;;;;0.75;0.75;;;25.30;47.90;;;;;;5084188;27;20031;-61
2022/07/12 12:15:23;;;;;;;0.52;0.52;;;25.20;47.90;;;;;;5080695;27;20051;-60
2022/07/12 12:18:03;;;;;;;0.93;0.93;;;25.20;47.80;;;;;;5081730;28;20066;-62
2022/07/12 12:20:41;;;;;;;1.50;1.40;;;25.20;47.50;;;;;;5076393;27;20088;-62
2022/07/12 12:23:15;;;;;;;0.60;0.60;;;25.10;47.20;;;;;;5078110;27;20028;-61
2022/07/12 12:25:41;;;;;;;0.70;0.55;;;25.10;47.30;;;;;;5084450;27;20032;-61
2022/07/12 12:28:07;;;;;;;0.88;0.70;;;25.00;47.60;;;;;;5082420;27;20048;-62
2022/07/12 12:30:35;;;;;;;0.77;0.77;;;25.00;47.60;;;;;;5084663;27;20750;-62
2022/07/12 12:33:06;;;;;;;0.70;0.70;;;24.90;47.60;;;;;;5086078;27;20518;-60
2022/07/12 12:35:33;;;;;;;0.98;0.98;;;24.90;47.80;;;;;;5087115;27;20073;-62
2022/07/12 12:38:01;;;;;;;0.90;0.90;;;24.90;47.80;;;;;;5082460;27;20154;-63
2022/07/12 12:40:31;;;;;;;0.73;0.73;;;24.90;47.60;;;;;;5076708;27;20026;-61
2022/07/12 12:43:10;;;;;;;0.70;0.70;;;24.90;47.60;;;;;;5080171;27;20027;-63
2022/07/12 12:45:48;;;;;;;0.40;0.40;;;24.80;47.40;;;;;;5079924;27;20038;-62
2022/07/12 12:48:22;;;;;;;0.70;0.70;;;24.80;47.40;;;;;;5077608;27;20080;-61
2022/07/12 12:50:50;;;;;;;0.75;0.75;;;24.80;47.40;;;;;;5081376;27;20211;-61
2022/07/12 12:53:25;;;;;;;0.70;0.70;;;24.80;47.20;;;;;;5076816;27;20039;-61
2022/07/12 12:55:52;;;;;;;0.95;0.68;;;24.80;47.30;;;;;;5077715;28;20059;-62
2022/07/12 12:58:19;;;;;;;0.55;0.55;;;24.80;47.20;;;;;;5058575;28;20052;-62
2022/07/12 13:00:48;;;;;;;1.13;0.60;;;24.70;47.10;;;;;;5082711;27;20067;-62
2022/07/12 13:03:19;;;;;;;0.43;0.43;;;24.70;47.20;;;;;;5086219;28;20578;-62